Independence, Ca., Owens Valley School Weather observations

 Day   Time    Ave.   Ave.  Ave.  Vector  Max.   Total    Solar  
  of    of     Air    Rel.  Wind   Wind   Wind  Precip.   Rad.   
Year   Day     Temp.  Hum.  Speed  Dir.   Gust                   
2015   (PST)    F      %     mph   deg.    mph    in.     W/m2  
----------------------------------------------------------------
  87   21:20   66.6    13    4.7   310    11.6    0.00       0
  87   21:30   65.9    13    3.5   281     7.8    0.00       0
  87   21:40   65.9    13    6.1   314    12.9    0.00       0
  87   21:50   66.1    13    5.2   310    10.9    0.00       0
  87   22:00   65.6    13    5.0   309    12.7    0.00       0
  87   22:10   65.4    13    4.3   312    10.4    0.00       0
  87   22:20   65.3    13    3.4   306     9.1    0.00       0
  87   22:30   65.4    13    2.9   298     7.9    0.00       0
  87   22:40   65.2    13    5.2   314    13.2    0.00       0
  87   22:50   65.6    13    4.6   306    12.1    0.00       0
  87   23:00   65.2    13    2.2   284     6.6    0.00       0
  87   23:10   64.6    13    1.7   297     6.8    0.00       0
  87   23:20   64.7    13    3.4   280     7.9    0.00       0
  87   23:30   64.4    14    3.2   280    10.1    0.00       0
  87   23:40   64.2    14    4.0   283    11.4    0.00       0
  87   23:50   64.1    14    4.3   279    11.7    0.00       0
  88    0:00   63.8    14    3.2   290     9.9    0.00       0
  88    0:10   63.6    14    2.4   292     7.8    0.00       0
  88    0:20   63.2    14    2.8   304     8.9    0.00       0
  88    0:30   63.0    14    2.3   294     9.0    0.00       0
  88    0:40   62.7    14    2.1   307     8.4    0.00       0
  88    0:50   62.8    14    3.2   313     9.3    0.00       0
  88    1:00   62.9    14    4.0   318     8.8    0.00       0
  88    1:10   62.8    14    4.8   319     9.0    0.00       0
  88    1:20   62.4    14    5.6   324    11.7    0.00       0
  88    1:30   62.0    14    4.5   324    10.0    0.00       0
  88    1:40   61.4    15    4.1   318     9.3    0.00       0
  88    1:50   61.1    15    5.1   319     9.2    0.00       0
  88    2:00   60.9    15    4.2   316     9.2    0.00       0
  88    2:10   60.4    16    2.8   300    10.4    0.00       0
  88    2:20   60.2    16    3.5   301     9.4    0.00       0
  88    2:30   60.1    16    4.1   298    10.2    0.00       0
  88    2:40   59.9    16    3.3   303     9.5    0.00       0
  88    2:50   59.8    16    4.0   308    10.3    0.00       0
  88    3:00   59.9    16    4.9   311    11.2    0.00       0
  88    3:10   59.5    16    4.9   309    13.0    0.00       0
  88    3:20   58.7    18    3.3   311    11.1    0.00       0
  88    3:30   57.7    18    2.2   329     6.9    0.00       0
  88    3:40   56.6    18    0.7   340     4.1    0.00       0
  88    3:50   56.1    19    2.5   324     6.2    0.00       0
  88    4:00   56.1    19    2.4   312     8.3    0.00       0
  88    4:10   56.4    20    3.0   297    10.3    0.00       0
  88    4:20   57.2    19    3.7   305    11.7    0.00       0
  88    4:30   57.5    18    3.7   294    10.9    0.00       0
  88    4:40   57.6    18    3.5   296    10.6    0.00       0
  88    4:50   57.2    18    4.6   291    11.5    0.00       0
  88    5:00   56.8    19    3.1   293     9.7    0.00       0
  88    5:10   56.3    19    3.4   304    10.3    0.00       1
  88    5:20   56.1    19    4.5   286    14.4    0.00       3
  88    5:30   56.4    19    5.7   304    14.0    0.00       6
  88    5:40   56.7    19    5.4   302    13.1    0.00      14
  88    5:50   56.8    19    5.1   300    12.8    0.00      21
  88    6:00   56.8    19    3.2   303    10.5    0.00      27
  88    6:10   56.3    20    4.9   307    14.1    0.00      44
  88    6:20   57.0    19    3.5   304    12.0    0.00     102
  88    6:30   58.6    18    3.6   286     8.7    0.00     207
  88    6:40   60.8    17    4.5   311    12.6    0.00     304
  88    6:50   61.2    16    4.9   312    11.1    0.00     212
  88    7:00   60.3    18    3.1   306     9.0    0.00     191
  88    7:10   60.2    18    2.7   295     7.9    0.00     121
  88    7:20   61.3    17    2.5   290     8.9    0.00     378
  88    7:30   63.6    16    2.8   299     9.8    0.00     421
  88    7:40   64.4    15    6.6   318    15.7    0.00     451
  88    7:50   65.7    14    4.2   321    14.0    0.00     482
  88    8:00   66.2    14    6.2   315    16.9    0.00     511
  88    8:10   67.6    13    6.7   324    12.8    0.00     540
  88    8:20   67.7    13    9.6   325    18.3    0.00     567
  88    8:30   68.6    13    8.6   326    16.9    0.00     594
  88    8:40   69.7    12    7.8   316    14.8    0.00     620
  88    8:50   70.6    12    8.1   325    19.9    0.00     646
  88    9:00   71.5    11    8.8   329    16.5    0.00     671
  88    9:10   72.0    11    8.6   329    18.0    0.00     694
  88    9:20   72.8    10    9.9   325    19.3    0.00     716
  88    9:30   73.7    10    8.2   322    15.5    0.00     736
  88    9:40   74.9    10    6.9   328    13.7    0.00     754
  88    9:50   75.1    10    6.4   318    12.3    0.00     770
  88   10:00   75.8    10    6.0   318    12.7    0.00     784
  88   10:10   76.2    10    3.9   307     9.5    0.00     798
  88   10:20   77.1    10    4.1   318    10.0    0.00     810
  88   10:30   78.2     9    2.9   357     9.7    0.00     821
  88   10:40   80.9     9    0.3   248     4.3    0.00     830
  88   10:50   81.3     9    1.5    20     7.9    0.00     837
  88   11:00   81.0     9    0.9    34     6.4    0.00     842
  88   11:10   81.4     9    2.3    43     7.9    0.00     846
  88   11:20   81.9     9    1.3    10     5.5    0.00     850
  88   11:30   82.1     8    1.5   141     7.9    0.00     849
  88   11:40   82.4     8    2.1   188     8.8    0.00     848
  88   11:50   82.7     8    2.2    89     7.7    0.00     846
  88   12:00   82.7     8    2.4   134     9.8    0.00     840
  88   12:10   81.6     9    5.1   118    11.2    0.00     838
  88   12:20   81.4     9    4.4    99    11.4    0.00     818
  88   12:30   81.6     9    6.1   109    11.7    0.00     840
  88   12:40   82.5     8    4.4    98    12.7    0.00     812
  88   12:50   81.5     9    4.8    93    13.0    0.00     721
  88   13:00   82.2     8    4.8   140    11.0    0.00     748
  88   13:10   81.7     8    6.1   138    11.4    0.00     750
  88   13:20   82.7     8    2.8   147     9.6    0.00     781
  88   13:30   83.6     8    5.7   136    15.5    0.00     782
  88   13:40   83.0     6    6.4   146    12.7    0.00     708
  88   13:50   83.1     7    7.0   142    15.0    0.00     739
  88   14:00   83.0     7    6.1   148    15.0    0.00     635
  88   14:10   81.3     7    9.0   146    14.9    0.00     346
  88   14:20   80.9     7    9.3   152    16.9    0.00     593
  88   14:30   81.9     6    8.8   159    17.1    0.00     570
  88   14:40   81.7     7    7.8   163    17.2    0.00     491
  88   14:50   80.0     8    7.7   158    16.4    0.00     159
  88   15:00   79.2     8    5.0   154    11.3    0.00     126
  88   15:10   78.9     8    5.3   147    11.8    0.00     112
  88   15:20   78.5     8    4.9   142    12.2    0.00     111
  88   15:30   78.6     8    4.7   150    10.6    0.00     118
  88   15:40   78.9     8    3.9   158     9.5    0.00     111
  88   15:50   78.6     9    6.9   150    15.1    0.00      88
  88   16:00   78.3     8    6.1   148    13.4    0.00      73
  88   16:10   78.2     8    5.0   152    12.4    0.00      67
  88   16:20   78.2     8    5.3   149    11.1    0.00      90
  88   16:30   78.5     8    4.4   152     9.8    0.00     129
  88   16:40   78.1     8    5.2   146    10.9    0.00      66
  88   16:50   77.1     8    2.8   148     7.1    0.00      32
  88   17:00   76.2     8    3.0   146     8.3    0.00      22
  88   17:10   75.2     9    3.6   149     8.7    0.00      16
  88   17:20   74.8     9    5.2   151    11.7    0.00      13
  88   17:30   73.6     9    4.3   145     9.6    0.00      10
  88   17:40   73.7     9    2.2   122     8.3    0.00       6
  88   17:50   73.5     9    2.6   123     9.3    0.00       3
  88   18:00   73.0     9    1.8   146     6.0    0.00       1
  88   18:10   72.2    10    0.5   148     4.9    0.00       0
  88   18:20   71.4    10    0.0   119     3.5    0.00       0
  88   18:30   71.5    10    1.4   180    11.2    0.00       0
  88   18:40   70.9    11    0.7   108     7.6    0.00       0
  88   18:50   71.7    10    1.7   148     8.1    0.00       0
  88   19:00   70.4    11    0.1   154     2.7    0.00       0
  88   19:10   68.8    11    0.0   183     0.9    0.00       0
  88   19:20   66.7    12    0.0     0     0.0    0.00       0
  88   19:30   66.5    12    0.0   272     2.1    0.00       0
  88   19:40   65.7    12    0.0   145     0.5    0.00       0
  88   19:50   66.4    12    0.1   218     1.6    0.00       0
  88   20:00   66.2    12    0.7   213     4.6    0.00       0
  88   20:10   66.9    12    0.2   246     4.7    0.00       0
  88   20:20   67.7    11    0.0   194     0.7    0.00       0
  88   20:30   67.7    12    0.0     0     0.0    0.00       0
  88   20:40   67.9    12    0.0   216     0.5    0.00       0
  88   20:50   67.2    12    0.0   254     1.5    0.00       0
  88   21:00   64.8    14    0.0     0     0.0    0.00       0
  88   21:10   64.8    13    0.0     0     0.0    0.00       0

Return to Independence, Ca. graphs page.


Western Regional Climate Center,wrcc@dri.edu